Airfield :
LOGIN :

Register | Disclaimer

   EN    FR    IT 

 










Legend :    VFR   Marginal VFR   IFR   Intensive IFR   Very Intensive IFR
Visi :
Ceiling :
>= 8 km
>= 3000ft
5 to 8 km
1000 to 3000 ft
1500m to 5 km
500 to 1000 ft
800 to 1500m
200 to 500 ft
< 800m
< 200 ft
Symbols :   Thunderstorms  Fog  Heavy snow  Heavy precipitations  Wind > 20 kt
SIGMETs :     Misc.  Thunderstorms  Icing  Turbulence  Mountain Waves  Volcanic Ashes







- Airport Elevation : 160 ft
- IATA code : FMO


EDDG - Münster Osnabrück Int.

CURRENT METAR :
  • 240720Z 17006KT 3500 -DZ BR BKN004 12/11 Q1020 NOSIG

EXPIRED METARs :
  • 240650Z 16005KT 4000 BR FEW003 BKN005 12/11 Q1020 NOSIG
  • 240620Z 16006KT 120V190 4000 -DZ BR BKN006 12/11 Q1020 TEMPO 6000
  • 240550Z 17005KT 140V210 6000 -DZ BKN006 12/11 Q1020 TEMPO 4000 BR
  • 240520Z 16006KT 130V190 4500 -DZ BR BKN005 12/11 Q1020 NOSIG
  • 240450Z 17006KT 4000 -DZ BR BKN004 12/11 Q1020 NOSIG
  • 240420Z 18005KT 140V220 4000 -DZ BR BKN004 12/11 Q1020 NOSIG

TAF TAF EDDG
Valid from the 24 at 06:00 until the 25 at 06:00 UTC


240500Z 2406/2506 18005KT 6000 SCT004 BKN008
TEMPO 2406/2409 2500 -DZRA BKN003
BECMG 2409/2412 22010KT BKN020
TEMPO 2415/2423 3000 RA BKN006
TEMPO 2423/2506 BKN008
No reported NOTAMs for that airfield.



MET'MAP, your aeronautical weather chart ! - Copyright ORBIFLY December 2007 - Disclaimer

ORBIFLY MET'MAP TEAM :

Programming & Development : Alexandra Zaïnal
Concept & Development : Baudouin d'Aumeries
Co-Development & Prog : Marc-Olivier Méhu
Technical & hardware support : Manuel Goepfert

Contact : metmap@orbifly.com




SOURCES & CREDITS :

   NOAA